createdAt,value
2018-03-02T00:01:20.452Z,5.50
2018-03-02T00:03:48.714Z,5.53
2018-03-02T00:06:16.889Z,6.05
2018-03-02T00:08:45.043Z,5.75
2018-03-02T00:11:13.389Z,6.00
2018-03-02T00:13:41.568Z,5.30
2018-03-02T00:16:09.780Z,6.15
2018-03-02T00:18:37.944Z,7.22
2018-03-02T00:21:06.166Z,5.75
2018-03-02T00:23:34.324Z,9.00
2018-03-02T00:26:03.274Z,5.70
2018-03-02T00:28:32.196Z,8.65
2018-03-02T00:31:00.451Z,5.70
2018-03-02T00:33:28.603Z,6.25
2018-03-02T00:35:57.627Z,5.43
2018-03-02T00:38:25.793Z,5.72
2018-03-02T00:40:54.005Z,5.43
2018-03-02T00:43:22.151Z,10.40
2018-03-02T00:45:50.348Z,5.90
2018-03-02T00:48:18.594Z,5.70
2018-03-02T00:50:46.750Z,6.60
2018-03-02T00:53:15.419Z,6.35
2018-03-02T00:55:44.355Z,6.15
2018-03-02T00:58:12.528Z,6.95
2018-03-02T01:00:40.686Z,6.78
2018-03-02T01:03:08.885Z,7.05
2018-03-02T01:05:37.053Z,6.40
2018-03-02T01:08:05.244Z,7.10
2018-03-02T01:10:33.500Z,7.35
2018-03-02T01:13:01.669Z,7.68
2018-03-02T01:15:29.866Z,7.18
2018-03-02T01:17:58.059Z,6.78
2018-03-02T01:20:26.218Z,6.95
2018-03-02T01:22:54.433Z,6.90
2018-03-02T01:25:22.667Z,7.40
2018-03-02T01:27:51.323Z,6.85
2018-03-02T01:30:19.480Z,8.70
2018-03-02T01:32:47.644Z,8.70
2018-03-02T01:35:15.872Z,7.75
2018-03-02T01:37:44.033Z,7.40
2018-03-02T01:40:12.291Z,7.78
2018-03-02T01:42:40.467Z,6.62
2018-03-02T01:45:08.690Z,8.65
2018-03-02T01:47:36.898Z,7.72
2018-03-02T01:50:05.431Z,8.88
2018-03-02T01:52:33.663Z,7.80
2018-03-02T01:55:01.822Z,7.40
2018-03-02T01:57:30.009Z,8.73
2018-03-02T01:59:58.179Z,7.47
2018-03-02T02:02:26.745Z,8.35
2018-03-02T02:04:54.886Z,6.90
2018-03-02T02:07:23.833Z,7.97
2018-03-02T02:09:52.054Z,8.25
2018-03-02T02:12:21.012Z,7.93
2018-03-02T02:14:49.467Z,10.50
2018-03-02T02:17:17.649Z,7.18
2018-03-02T02:19:45.813Z,7.10
2018-03-02T02:22:13.966Z,9.30
2018-03-02T02:24:50.613Z,6.50
2018-03-02T02:27:19.555Z,7.45
2018-03-02T02:29:47.735Z,8.70
2018-03-02T02:32:15.932Z,8.00
2018-03-02T02:34:44.117Z,8.45
2018-03-02T02:37:12.304Z,8.02
2018-03-02T02:39:40.476Z,9.07
2018-03-02T02:42:09.457Z,8.98
2018-03-02T02:44:38.400Z,9.73
2018-03-02T02:47:06.587Z,10.15
2018-03-02T02:49:34.795Z,8.93
2018-03-02T02:52:03.730Z,8.63
2018-03-02T02:54:31.909Z,9.15
2018-03-02T02:57:00.075Z,8.45
2018-03-02T02:59:28.346Z,8.52
2018-03-02T03:01:56.513Z,8.30
2018-03-02T03:04:25.085Z,9.73
2018-03-02T03:06:53.356Z,11.10
2018-03-02T03:09:21.526Z,9.65
2018-03-02T03:11:50.537Z,11.65
2018-03-02T03:14:18.675Z,9.20
2018-03-02T03:16:46.863Z,9.60
2018-03-02T03:19:15.813Z,9.48
2018-03-02T03:21:44.010Z,10.32
2018-03-02T03:24:12.180Z,10.73
2018-03-02T03:26:40.351Z,11.50
2018-03-02T03:29:08.540Z,8.73
2018-03-02T03:31:37.466Z,13.35
2018-03-02T03:34:05.763Z,10.23
2018-03-02T03:36:33.946Z,9.65
2018-03-02T03:39:02.144Z,10.38
2018-03-02T03:41:30.397Z,10.32
2018-03-02T03:43:58.587Z,12.10
2018-03-02T03:46:26.853Z,11.35
2018-03-02T03:48:55.042Z,10.45
2018-03-02T03:51:24.011Z,11.02
2018-03-02T03:53:52.197Z,11.12
2018-03-02T03:56:20.396Z,12.55
2018-03-02T03:58:48.586Z,11.77
2018-03-02T04:01:17.587Z,10.45
2018-03-02T04:03:45.813Z,11.12
2018-03-02T04:06:13.979Z,12.40
2018-03-02T04:08:42.146Z,12.02
2018-03-02T04:11:10.420Z,10.40
2018-03-02T04:13:38.586Z,11.30
2018-03-02T04:16:06.833Z,10.75
2018-03-02T04:18:35.042Z,13.50
2018-03-02T04:21:03.261Z,10.40
2018-03-02T04:23:31.458Z,11.73
2018-03-02T04:25:59.666Z,10.82
2018-03-02T04:28:27.991Z,10.77
2018-03-02T04:30:56.166Z,12.85
2018-03-02T04:33:24.392Z,12.48
2018-03-02T04:35:53.391Z,11.82
2018-03-02T04:38:21.568Z,13.90
2018-03-02T04:40:49.739Z,14.15
2018-03-02T04:43:18.021Z,16.62
2018-03-02T04:45:46.200Z,11.95
2018-03-02T04:48:15.165Z,13.07
2018-03-02T04:50:43.473Z,10.70
2018-03-02T04:53:12.439Z,14.18
2018-03-02T04:55:40.643Z,14.25
2018-03-02T04:58:09.578Z,14.82
2018-03-02T05:00:38.323Z,12.30
2018-03-02T05:03:07.325Z,15.82
2018-03-02T05:05:35.499Z,12.07
2018-03-02T05:08:03.678Z,13.93
2018-03-02T05:10:31.935Z,14.70
2018-03-02T05:13:00.233Z,14.13
2018-03-02T05:15:30.895Z,13.88
2018-03-02T05:17:59.099Z,14.95
2018-03-02T05:20:28.070Z,13.82
2018-03-02T05:22:56.262Z,14.38
2018-03-02T05:25:25.270Z,15.10
2018-03-02T05:27:53.414Z,13.43
2018-03-02T05:30:21.587Z,17.25
2018-03-02T05:32:49.800Z,13.75
2018-03-02T05:35:18.150Z,14.50
2018-03-02T05:37:47.154Z,14.70
2018-03-02T05:40:16.122Z,14.95
2018-03-02T05:42:44.673Z,16.23
2018-03-02T05:45:12.821Z,13.55
2018-03-02T05:47:41.005Z,16.52
2018-03-02T05:50:09.180Z,14.63
2018-03-02T05:52:37.417Z,14.80
2018-03-02T05:55:06.363Z,16.27
2018-03-02T05:57:34.522Z,16.08
2018-03-02T06:00:03.107Z,13.88
2018-03-02T06:02:31.293Z,14.05
2018-03-02T06:04:59.510Z,16.42
2018-03-02T06:07:28.481Z,17.00
2018-03-02T06:09:56.716Z,16.15
2018-03-02T06:12:24.877Z,19.75
2018-03-02T06:14:53.075Z,15.50
2018-03-02T06:17:21.290Z,18.58
2018-03-02T06:19:50.260Z,20.62
2018-03-02T06:22:18.471Z,17.17
2018-03-02T06:24:46.663Z,20.05
2018-03-02T06:27:14.882Z,16.08
2018-03-02T06:29:43.475Z,18.27
2018-03-02T06:32:11.686Z,17.48
2018-03-02T06:34:39.869Z,16.45
2018-03-02T06:37:08.241Z,16.52
2018-03-02T06:39:36.502Z,20.30
2018-03-02T06:42:05.027Z,19.37
2018-03-02T06:44:33.206Z,17.75
2018-03-02T06:47:01.372Z,16.45
2018-03-02T06:49:29.672Z,15.48
2018-03-02T06:51:57.937Z,18.48
2018-03-02T06:54:26.158Z,20.15
2018-03-02T06:56:54.340Z,16.58
2018-03-02T06:59:22.586Z,17.48
2018-03-02T07:01:51.116Z,16.17
2018-03-02T07:04:19.284Z,17.23
2018-03-02T07:06:47.487Z,17.50
2018-03-02T07:09:15.660Z,19.55
2018-03-02T07:11:43.836Z,18.83
2018-03-02T07:14:12.085Z,18.80
2018-03-02T07:16:40.293Z,20.23
2018-03-02T07:19:08.546Z,19.50
2018-03-02T07:21:36.736Z,17.75
2018-03-02T07:24:04.914Z,16.73
2018-03-02T07:26:33.106Z,17.75
2018-03-02T07:29:02.071Z,20.85
2018-03-02T07:31:30.236Z,18.10
2018-03-02T07:33:58.434Z,20.62
2018-03-02T07:36:27.422Z,20.27
2018-03-02T07:38:55.591Z,16.23
2018-03-02T07:41:23.760Z,17.00
2018-03-02T07:43:51.979Z,21.12
2018-03-02T07:46:20.261Z,22.92
2018-03-02T07:48:48.854Z,16.37
2018-03-02T07:51:17.043Z,17.95
2018-03-02T07:53:45.248Z,19.25
2018-03-02T07:56:13.423Z,19.45
2018-03-02T07:58:41.621Z,19.75
2018-03-02T08:01:09.870Z,18.80
2018-03-02T08:03:38.899Z,21.50
2018-03-02T08:06:07.132Z,16.80
2018-03-02T08:08:35.368Z,22.00
2018-03-02T08:11:03.566Z,20.05
2018-03-02T08:13:32.798Z,18.83
2018-03-02T08:16:01.748Z,18.08
2018-03-02T08:18:29.951Z,18.10
2018-03-02T08:20:58.137Z,16.95
2018-03-02T08:23:27.063Z,18.80
2018-03-02T08:25:55.437Z,18.90
2018-03-02T08:28:23.600Z,20.65
2018-03-02T08:30:51.783Z,15.93
2018-03-02T08:33:19.985Z,19.33
2018-03-02T08:35:48.179Z,20.60
2018-03-02T08:38:16.445Z,18.95
2018-03-02T08:40:44.606Z,20.37
2018-03-02T08:43:13.031Z,19.87
2018-03-02T08:45:41.264Z,18.90
2018-03-02T08:48:09.438Z,21.95
2018-03-02T08:50:37.591Z,18.20
2018-03-02T08:53:05.771Z,18.37
2018-03-02T08:55:33.926Z,18.17
2018-03-02T08:58:02.123Z,19.02
2018-03-02T09:00:30.396Z,20.83
2018-03-02T09:02:58.575Z,17.75
2018-03-02T09:05:26.910Z,19.98
2018-03-02T09:07:55.083Z,23.15
2018-03-02T09:10:23.374Z,18.58
2018-03-02T09:12:51.536Z,19.40
2018-03-02T09:15:19.785Z,16.55
2018-03-02T09:17:48.801Z,17.70
2018-03-02T09:20:17.202Z,18.35
2018-03-02T09:22:45.422Z,18.10
2018-03-02T09:25:14.446Z,22.77
2018-03-02T09:27:42.644Z,18.40
2018-03-02T09:30:10.876Z,15.82
2018-03-02T09:32:39.078Z,15.60
2018-03-02T09:35:08.218Z,17.15
2018-03-02T09:37:36.442Z,17.42
2018-03-02T09:40:04.711Z,18.75
2018-03-02T09:42:32.874Z,16.87
2018-03-02T09:45:01.159Z,15.60
2018-03-02T09:47:29.388Z,21.37
2018-03-02T09:49:57.558Z,16.55
2018-03-02T09:52:25.753Z,16.37
2018-03-02T09:54:54.706Z,19.30
2018-03-02T09:57:23.539Z,13.85
2018-03-02T09:59:51.707Z,15.63
2018-03-02T10:02:21.120Z,16.65
2018-03-02T10:04:50.144Z,16.12
2018-03-02T10:07:18.363Z,16.70
2018-03-02T10:09:46.566Z,17.42
2018-03-02T10:12:14.759Z,17.00
2018-03-02T10:14:42.926Z,15.35
2018-03-02T10:17:11.197Z,17.40
2018-03-02T10:19:39.377Z,13.77
2018-03-02T10:22:07.585Z,15.95
2018-03-02T10:24:35.780Z,18.10
2018-03-02T10:27:03.957Z,14.70
2018-03-02T10:29:33.021Z,13.70
2018-03-02T10:32:01.242Z,15.50
2018-03-02T10:34:29.410Z,13.18
2018-03-02T10:36:57.666Z,13.82
2018-03-02T10:39:26.595Z,12.93
2018-03-02T10:41:54.781Z,13.27
2018-03-02T10:44:23.753Z,14.60
2018-03-02T10:46:51.899Z,14.75
2018-03-02T10:49:20.852Z,13.82
2018-03-02T10:51:49.210Z,12.90
2018-03-02T10:54:17.376Z,18.20
2018-03-02T10:56:45.557Z,12.85
2018-03-02T10:59:13.806Z,12.80
2018-03-02T11:01:48.274Z,13.30
2018-03-02T11:04:18.163Z,13.93
2018-03-02T11:06:46.370Z,15.85
2018-03-02T11:09:14.622Z,16.45
2018-03-02T11:11:43.057Z,13.68
2018-03-02T11:14:12.089Z,11.75
2018-03-02T11:16:40.310Z,13.07
2018-03-02T11:19:08.458Z,12.10
2018-03-02T11:21:36.705Z,12.60
2018-03-02T11:24:04.951Z,12.63
2018-03-02T11:26:33.933Z,12.77
2018-03-02T11:29:02.940Z,14.10
2018-03-02T11:31:31.911Z,11.25
2018-03-02T11:34:00.080Z,12.63
2018-03-02T11:36:29.157Z,14.40
2018-03-02T11:38:57.455Z,12.45
2018-03-02T11:41:25.633Z,12.95
2018-03-02T11:43:54.601Z,13.18
2018-03-02T11:46:23.555Z,11.45
2018-03-02T11:48:52.079Z,12.40
2018-03-02T11:51:20.290Z,11.40
2018-03-02T11:53:48.474Z,11.20
2018-03-02T11:56:16.639Z,13.55
2018-03-02T11:58:44.854Z,13.35
2018-03-02T12:01:13.078Z,13.90
2018-03-02T12:03:42.051Z,13.25
2018-03-02T12:06:11.046Z,12.60
2018-03-02T12:08:40.054Z,12.27
2018-03-02T12:11:08.297Z,13.13
2018-03-02T12:13:36.535Z,13.98
2018-03-02T12:16:04.712Z,11.32
2018-03-02T12:18:32.831Z,14.20
2018-03-02T12:21:01.792Z,12.15
2018-03-02T12:23:30.003Z,13.65
2018-03-02T12:25:58.955Z,13.50
2018-03-02T12:28:27.207Z,12.32
2018-03-02T12:30:55.398Z,13.60
2018-03-02T12:33:23.619Z,11.93
2018-03-02T12:35:51.801Z,15.43
2018-03-02T12:38:19.986Z,10.10
2018-03-02T12:40:48.173Z,12.50
2018-03-02T12:43:16.408Z,13.25
2018-03-02T12:45:44.590Z,16.15
2018-03-02T12:48:13.599Z,15.20
2018-03-02T12:50:42.590Z,14.05
2018-03-02T12:53:10.799Z,15.05
2018-03-02T12:55:39.027Z,11.73
2018-03-02T12:58:07.271Z,12.73
2018-03-02T13:00:35.479Z,11.68
2018-03-02T13:03:03.647Z,12.95
2018-03-02T13:05:31.829Z,11.55
2018-03-02T13:08:00.039Z,11.38
2018-03-02T13:10:28.289Z,11.75
2018-03-02T13:12:56.489Z,11.35
2018-03-02T13:15:24.683Z,12.50
2018-03-02T13:17:52.889Z,15.10
2018-03-02T13:20:21.400Z,10.45
2018-03-02T13:22:49.606Z,15.35
2018-03-02T13:25:17.794Z,10.60
2018-03-02T13:28:03.833Z,11.98
2018-03-02T13:30:32.030Z,12.63
2018-03-02T13:33:17.922Z,11.35
2018-03-02T13:35:46.147Z,11.32
2018-03-02T13:38:14.381Z,10.73
2018-03-02T13:41:00.330Z,10.90
2018-03-02T13:43:28.538Z,11.10
2018-03-02T13:45:56.716Z,12.37
2018-03-02T13:48:43.581Z,11.63
2018-03-02T13:51:11.746Z,13.10
2018-03-02T13:53:39.992Z,13.73
2018-03-02T13:56:09.605Z,12.85
2018-03-02T13:58:38.542Z,14.35
2018-03-02T14:01:11.551Z,11.48
2018-03-02T14:06:47.691Z,14.25
2018-03-02T14:09:15.859Z,15.73
2018-03-02T14:11:44.183Z,12.27
2018-03-02T14:14:12.348Z,12.15
2018-03-02T14:16:40.498Z,13.00
2018-03-02T14:19:09.445Z,12.63
2018-03-02T14:21:38.406Z,15.40
2018-03-02T14:24:06.580Z,14.82
2018-03-02T14:26:34.778Z,13.88
2018-03-02T14:29:03.791Z,13.13
2018-03-02T14:31:32.025Z,13.30
2018-03-02T14:34:00.219Z,14.00
2018-03-02T14:36:29.200Z,14.10
2018-03-02T14:38:57.463Z,12.48
2018-03-02T14:41:25.651Z,11.43
2018-03-02T14:43:53.904Z,13.00
2018-03-02T14:46:22.296Z,13.38
2018-03-02T14:48:51.251Z,13.00
2018-03-02T14:51:19.579Z,14.25
2018-03-02T14:53:48.649Z,13.13
2018-03-02T14:56:16.999Z,14.18
2018-03-02T14:58:45.219Z,11.98
2018-03-02T15:01:14.205Z,12.35
2018-03-02T15:03:42.451Z,12.13
2018-03-02T15:06:10.653Z,12.70
2018-03-02T15:08:38.830Z,15.23
2018-03-02T15:11:07.781Z,13.45
2018-03-02T15:13:35.961Z,15.35
2018-03-02T15:16:04.129Z,16.35
2018-03-02T15:18:33.756Z,18.08
2018-03-02T15:21:02.055Z,12.75
2018-03-02T15:23:30.987Z,13.70
2018-03-02T15:25:59.187Z,15.45
2018-03-02T15:28:27.363Z,11.60
2018-03-02T15:30:55.517Z,16.70
2018-03-02T15:33:23.712Z,13.23
2018-03-02T15:35:51.873Z,16.45
2018-03-02T15:38:22.060Z,14.45
2018-03-02T15:40:50.231Z,16.87
2018-03-02T15:43:18.560Z,12.98
2018-03-02T15:45:46.767Z,17.55
2018-03-02T15:48:15.766Z,18.08
2018-03-02T15:50:44.770Z,14.23
2018-03-02T15:53:13.814Z,14.63
2018-03-02T15:55:42.045Z,14.10
2018-03-02T15:58:10.243Z,15.10
2018-03-02T16:00:38.502Z,13.73
2018-03-02T16:03:06.659Z,15.48
2018-03-02T16:05:34.891Z,16.10
2018-03-02T16:08:03.093Z,16.50
2018-03-02T16:10:31.358Z,14.13
2018-03-02T16:13:00.323Z,14.93
2018-03-02T16:15:28.576Z,15.35
2018-03-02T16:17:56.816Z,14.80
2018-03-02T16:20:25.530Z,14.40
2018-03-02T16:22:53.758Z,17.30
2018-03-02T16:25:22.761Z,17.42
2018-03-02T16:27:51.758Z,17.27
2018-03-02T16:30:19.933Z,15.38
2018-03-02T16:32:48.199Z,14.65
2018-03-02T16:35:17.151Z,16.17
2018-03-02T16:37:45.420Z,16.65
2018-03-02T16:40:13.617Z,15.40
2018-03-02T16:42:41.777Z,17.83
2018-03-02T16:45:10.039Z,16.05
2018-03-02T16:47:38.466Z,16.85
2018-03-02T16:50:07.530Z,14.95
2018-03-02T16:52:35.736Z,14.98
2018-03-02T16:55:03.908Z,17.05
2018-03-02T16:57:32.858Z,15.75
2018-03-02T17:00:01.117Z,17.90
2018-03-02T17:02:29.394Z,16.10
2018-03-02T17:04:57.604Z,16.92
2018-03-02T17:07:25.806Z,17.60
2018-03-02T17:09:54.000Z,16.40
2018-03-02T17:12:22.264Z,18.17
2018-03-02T17:14:50.487Z,14.75
2018-03-02T17:17:18.739Z,16.35
2018-03-02T17:19:47.082Z,18.80
2018-03-02T17:22:15.269Z,17.83
2018-03-02T17:24:43.588Z,18.25
2018-03-02T17:27:11.787Z,17.02
2018-03-02T17:29:40.019Z,19.85
2018-03-02T17:32:08.199Z,17.10
2018-03-02T17:34:36.436Z,15.57
2018-03-02T17:37:04.602Z,16.08
2018-03-02T17:39:32.861Z,16.62
2018-03-02T17:42:01.241Z,16.40
2018-03-02T17:44:30.039Z,20.15
2018-03-02T17:46:58.229Z,14.68
2018-03-02T17:49:26.395Z,16.23
2018-03-02T17:51:54.576Z,16.77
2018-03-02T17:54:22.839Z,15.93
2018-03-02T17:56:51.000Z,19.58
2018-03-02T17:59:19.141Z,16.23
2018-03-02T18:01:47.366Z,18.45
2018-03-02T18:04:15.832Z,15.05
2018-03-02T18:06:44.039Z,17.40
2018-03-02T18:09:12.228Z,18.75
2018-03-02T18:11:40.418Z,18.48
2018-03-02T18:14:09.411Z,15.77
2018-03-02T18:16:37.655Z,16.00
2018-03-02T18:19:05.905Z,16.25
2018-03-02T18:21:42.379Z,18.50
2018-03-02T18:24:10.710Z,14.80
2018-03-02T18:26:39.683Z,15.45
2018-03-02T18:29:07.903Z,19.58
2018-03-02T18:31:36.209Z,15.93
2018-03-02T18:34:04.500Z,18.75
2018-03-02T18:36:32.808Z,18.42
2018-03-02T18:39:01.747Z,17.20
2018-03-02T18:41:29.984Z,14.98
2018-03-02T18:43:58.978Z,16.40
2018-03-02T18:46:27.934Z,17.05
2018-03-02T18:48:56.130Z,17.62
2018-03-02T18:51:25.184Z,15.63
2018-03-02T18:53:53.448Z,16.12
2018-03-02T18:56:21.636Z,15.15
2018-03-02T18:58:49.858Z,14.70
2018-03-02T19:01:18.768Z,17.30
2018-03-02T19:03:47.004Z,14.77
2018-03-02T19:06:15.199Z,15.07
2018-03-02T19:08:45.018Z,14.90
2018-03-02T19:11:13.643Z,16.15
2018-03-02T19:13:41.917Z,16.30
2018-03-02T19:16:10.134Z,16.58
2018-03-02T19:18:38.457Z,16.85
2018-03-02T19:21:06.675Z,15.75
2018-03-02T19:23:35.725Z,15.30
2018-03-02T19:26:03.946Z,16.40
2018-03-02T19:28:33.585Z,18.00
2018-03-02T19:31:01.789Z,14.95
2018-03-02T19:33:30.061Z,16.37
2018-03-02T19:35:58.319Z,14.40
2018-03-02T19:38:26.560Z,15.48
2018-03-02T19:40:54.745Z,14.52
2018-03-02T19:43:22.953Z,15.07
2018-03-02T19:45:51.204Z,18.42
2018-03-02T19:48:19.456Z,17.62
2018-03-02T19:50:47.804Z,16.20
2018-03-02T19:53:15.986Z,16.33
2018-03-02T19:55:44.190Z,16.27
2018-03-02T19:58:12.423Z,15.70
2018-03-02T20:00:40.636Z,17.20
2018-03-02T20:03:08.836Z,15.55
2018-03-02T20:05:37.062Z,15.48
2018-03-02T20:08:05.258Z,17.52
2018-03-02T20:10:33.464Z,15.93
2018-03-02T20:13:01.679Z,17.55
2018-03-02T20:15:30.053Z,15.73
2018-03-02T20:17:58.340Z,15.43
2018-03-02T20:20:26.625Z,15.40
2018-03-02T20:22:55.576Z,14.35
2018-03-02T20:25:23.936Z,14.75
2018-03-02T20:27:52.082Z,14.15
2018-03-02T20:30:20.303Z,14.87
2018-03-02T20:32:48.602Z,16.35
2018-03-02T20:35:16.792Z,16.37
2018-03-02T20:37:45.062Z,16.90
2018-03-02T20:40:13.621Z,16.12
2018-03-02T20:42:42.418Z,15.48
2018-03-02T20:45:11.424Z,14.48
2018-03-02T20:47:39.584Z,16.30
2018-03-02T20:50:07.920Z,15.27
2018-03-02T20:52:36.203Z,14.27
2018-03-02T20:55:05.122Z,15.40
2018-03-02T20:57:33.287Z,16.25
2018-03-02T21:00:01.469Z,19.10
2018-03-02T21:02:29.648Z,16.85
2018-03-02T21:04:58.649Z,15.88
2018-03-02T21:07:26.943Z,18.00
2018-03-02T21:09:55.263Z,16.40
2018-03-02T21:12:23.458Z,17.20
2018-03-02T21:14:51.762Z,17.15
2018-03-02T21:17:19.951Z,19.50
2018-03-02T21:19:48.119Z,18.30
2018-03-02T21:22:16.312Z,17.37
2018-03-02T21:24:45.303Z,16.40
2018-03-02T21:27:13.835Z,16.23
2018-03-02T21:29:42.041Z,16.25
2018-03-02T21:32:10.240Z,18.87
2018-03-02T21:34:38.492Z,16.05
2018-03-02T21:37:06.681Z,15.95
2018-03-02T21:39:34.864Z,17.85
2018-03-02T21:42:03.492Z,17.92
2018-03-02T21:44:32.529Z,19.20
2018-03-02T21:47:00.769Z,17.25
2018-03-02T21:49:29.134Z,21.52
2018-03-02T21:51:57.344Z,17.05
2018-03-02T21:54:25.666Z,18.70
2018-03-02T21:56:53.891Z,17.95
2018-03-02T21:59:22.030Z,17.08
2018-03-02T22:01:50.209Z,17.58
2018-03-02T22:04:19.146Z,18.70
2018-03-02T22:06:47.426Z,18.60
2018-03-02T22:09:15.636Z,17.15
2018-03-02T22:11:43.885Z,18.35
2018-03-02T22:14:12.130Z,17.65
2018-03-02T22:16:40.400Z,22.95
2018-03-02T22:19:08.701Z,17.45
2018-03-02T22:21:37.039Z,18.48
2018-03-02T22:24:06.043Z,17.67
2018-03-02T22:26:34.358Z,20.23
2018-03-02T22:29:02.713Z,18.85
2018-03-02T22:31:31.664Z,19.52
2018-03-02T22:34:00.614Z,19.27
2018-03-02T22:36:28.812Z,21.35
2018-03-02T22:38:56.982Z,19.50
2018-03-02T22:41:25.231Z,18.23
2018-03-02T22:43:53.433Z,21.75
2018-03-02T22:46:21.578Z,16.75
2018-03-02T22:48:49.834Z,16.27
2018-03-02T22:51:18.149Z,19.90
2018-03-02T22:53:46.358Z,18.23
2018-03-02T22:56:14.565Z,17.08
2018-03-02T22:58:42.800Z,16.95
2018-03-02T23:01:11.851Z,16.80
2018-03-02T23:03:40.035Z,18.15
2018-03-02T23:06:08.310Z,18.40
2018-03-02T23:08:36.530Z,17.45
2018-03-02T23:11:05.477Z,20.67
2018-03-02T23:13:33.690Z,19.60
2018-03-02T23:16:01.887Z,17.15
2018-03-02T23:18:30.826Z,17.77
2018-03-02T23:20:59.020Z,16.87
2018-03-02T23:23:27.966Z,18.90
2018-03-02T23:25:56.151Z,19.65
2018-03-02T23:28:24.341Z,19.95
2018-03-02T23:30:53.426Z,23.65
2018-03-02T23:33:21.736Z,20.92
2018-03-02T23:35:49.924Z,18.73
2018-03-02T23:38:18.193Z,16.98
2018-03-02T23:40:46.407Z,19.85
2018-03-02T23:43:14.618Z,19.25
2018-03-02T23:45:44.487Z,19.98
2018-03-02T23:48:12.701Z,19.83
2018-03-02T23:50:41.715Z,20.75
2018-03-02T23:53:09.952Z,17.87
2018-03-02T23:55:38.222Z,18.37
2018-03-02T23:58:06.406Z,20.27
